Time;durP1;ratioP1;P1;durP2;ratioP2;P2;SDS_P1;SDS_P2;PMS_P1;PMS_P2;Temp;Humidity;BMP_temperature;BMP_pressure;BME280_temperature;BME280_humidity;BME280_pressure;Samples;Min_cycle;Max_cycle;Signal;HPM_P1;HPM_P2
2021/08/19 00:01:34;;;;;;;20.13;9.63;;;;;;;15.91;93.43;101471.56;5075949;28;20041;-73
2021/08/19 00:04:02;;;;;;;16.00;9.70;;;;;;;15.92;93.88;101472.44;5080044;28;20063;-75
2021/08/19 00:06:30;;;;;;;16.60;8.43;;;;;;;15.90;93.76;101463.56;5076887;28;20117;-73
2021/08/19 00:08:58;;;;;;;16.25;8.93;;;;;;;15.90;93.80;101467.13;5080078;28;20060;-73
2021/08/19 00:11:25;;;;;;;16.95;9.02;;;;;;;15.91;94.30;101458.09;5079142;28;20466;-73
2021/08/19 00:13:53;;;;;;;17.98;8.10;;;;;;;15.92;94.20;101461.66;5075013;28;20354;-72
2021/08/19 00:16:22;;;;;;;15.35;8.15;;;;;;;15.92;94.58;101465.25;5080649;28;20104;-72
2021/08/19 00:18:50;;;;;;;14.68;8.93;;;;;;;15.94;94.52;101465.19;5073179;28;20060;-72
2021/08/19 00:21:18;;;;;;;18.77;9.68;;;;;;;15.93;94.69;101463.44;5084708;28;20064;-72
2021/08/19 00:23:46;;;;;;;13.82;8.43;;;;;;;15.94;94.98;101471.44;5073653;28;20067;-72
2021/08/19 00:26:14;;;;;;;14.85;8.38;;;;;;;15.95;95.19;101462.41;5080157;28;20055;-73
2021/08/19 00:28:41;;;;;;;19.90;8.70;;;;;;;15.94;95.64;101463.38;5075135;28;20063;-72
2021/08/19 00:31:09;;;;;;;16.10;8.77;;;;;;;15.97;95.58;101463.22;5074876;28;20178;-73
2021/08/19 00:33:38;;;;;;;17.10;8.80;;;;;;;15.97;95.55;101463.22;5079159;28;20117;-73
2021/08/19 00:36:06;;;;;;;18.42;7.68;;;;;;;15.97;95.32;101465.03;5074630;28;20072;-73
2021/08/19 00:38:34;;;;;;;18.30;8.65;;;;;;;15.99;95.40;101468.53;5080344;28;20189;-71
2021/08/19 00:41:04;;;;;;;16.00;8.55;;;;;;;16.00;95.63;101460.38;5076259;28;20074;-72
2021/08/19 00:43:34;;;;;;;18.85;8.65;;;;;;;16.01;95.54;101455.88;5077710;28;20044;-72
2021/08/19 00:46:02;;;;;;;14.57;7.05;;;;;;;16.01;95.50;101454.06;5077446;28;20059;-72
2021/08/19 00:48:31;;;;;;;17.58;8.45;;;;;;;16.03;95.78;101457.56;5073695;28;20064;-71
2021/08/19 00:51:01;;;;;;;19.00;8.90;;;;;;;16.04;95.71;101453.06;5080743;28;20067;-72
2021/08/19 00:53:29;;;;;;;18.70;8.23;;;;;;;16.02;95.91;101450.44;5075283;28;20060;-72
2021/08/19 00:55:56;;;;;;;18.75;9.10;;;;;;;16.05;95.71;101452.09;5076045;28;20098;-71
2021/08/19 00:58:24;;;;;;;21.83;8.93;;;;;;;16.06;95.55;101446.66;5080537;28;20634;-72
2021/08/19 01:00:52;;;;;;;14.32;8.10;;;;;;;16.11;95.45;101443.75;5077392;28;20471;-72
2021/08/19 01:03:20;;;;;;;12.15;7.32;;;;;;;16.10;95.70;101450.06;5082254;28;20480;-72
2021/08/19 01:05:48;;;;;;;15.05;6.80;;;;;;;16.12;95.61;101448.19;5074026;28;20071;-72
2021/08/19 01:08:17;;;;;;;12.52;6.55;;;;;;;16.13;95.65;101441.00;5080632;28;20059;-72
2021/08/19 01:10:45;;;;;;;18.10;8.70;;;;;;;16.12;95.33;101445.50;5076661;28;20435;-72
2021/08/19 01:13:13;;;;;;;18.17;7.78;;;;;;;16.13;95.56;101441.00;5078502;28;20110;-72
2021/08/19 01:15:41;;;;;;;16.20;8.52;;;;;;;16.09;95.96;101444.75;5079212;28;20112;-73
2021/08/19 01:18:09;;;;;;;15.95;6.97;;;;;;;16.06;95.88;101435.88;5079348;28;20541;-73
2021/08/19 01:20:37;;;;;;;15.93;7.35;;;;;;;15.98;96.74;101429.09;5075301;28;20044;-72
2021/08/19 01:23:05;;;;;;;15.43;7.90;;;;;;;15.94;96.33;101433.75;5074195;28;20056;-73
2021/08/19 01:25:35;;;;;;;18.55;8.80;;;;;;;15.90;96.91;101436.66;5077596;28;20044;-73
2021/08/19 01:28:04;;;;;;;14.57;7.88;;;;;;;15.84;97.08;101444.06;5080933;28;20063;-73
2021/08/19 01:30:32;;;;;;;16.38;8.63;;;;;;;15.81;97.47;101446.00;5080287;28;20339;-74
2021/08/19 01:33:00;;;;;;;23.17;9.10;;;;;;;15.77;97.25;101439.91;5083413;28;20064;-72
2021/08/19 01:35:29;;;;;;;16.67;8.38;;;;;;;15.71;97.64;101442.81;5078427;28;20098;-72
2021/08/19 01:37:57;;;;;;;17.13;8.18;;;;;;;15.67;97.85;101443.91;5084318;28;20118;-73
2021/08/19 01:40:24;;;;;;;16.83;8.93;;;;;;;15.61;98.21;101442.38;5077443;28;20040;-73
2021/08/19 01:42:52;;;;;;;18.52;7.55;;;;;;;15.56;97.96;101444.38;5080212;28;20443;-73
2021/08/19 01:45:22;;;;;;;14.57;7.72;;;;;;;15.54;98.39;101448.91;5079605;28;20064;-73
2021/08/19 01:47:50;;;;;;;14.38;7.72;;;;;;;15.47;98.91;101445.63;5080902;28;20114;-72
2021/08/19 01:50:18;;;;;;;16.42;8.40;;;;;;;15.41;99.83;101445.00;5081143;28;20079;-72
2021/08/19 01:52:46;;;;;;;19.25;8.43;;;;;;;15.36;100.00;101447.91;5079016;28;20522;-73
2021/08/19 01:55:14;;;;;;;16.92;8.63;;;;;;;15.35;99.91;101445.28;5078614;28;20063;-74
2021/08/19 01:57:42;;;;;;;15.63;8.27;;;;;;;15.30;100.00;101445.47;5081438;28;20068;-72
2021/08/19 02:00:10;;;;;;;16.40;8.38;;;;;;;15.25;100.00;101442.97;5079996;28;20130;-73
2021/08/19 02:02:40;;;;;;;17.63;9.52;;;;;;;15.25;100.00;101444.78;5075890;28;20406;-72
2021/08/19 02:05:09;;;;;;;19.20;8.90;;;;;;;15.20;100.00;101444.97;5076997;28;20340;-72
2021/08/19 02:07:36;;;;;;;16.63;8.60;;;;;;;15.23;100.00;101446.69;5077207;28;20369;-72
2021/08/19 02:10:07;;;;;;;16.42;9.30;;;;;;;15.26;100.00;101439.34;5079960;28;20383;-72
2021/08/19 02:12:35;;;;;;;16.83;8.77;;;;;;;15.26;100.00;101439.34;5079491;28;20048;-72
2021/08/19 02:15:04;;;;;;;18.10;8.93;;;;;;;15.31;100.00;101440.03;5077902;28;20145;-72
2021/08/19 02:17:32;;;;;;;22.58;10.35;;;;;;;15.32;100.00;101444.47;5078777;28;20060;-71
2021/08/19 02:20:01;;;;;;;19.27;9.15;;;;;;;15.34;100.00;101444.44;5076390;28;20067;-73
2021/08/19 02:22:29;;;;;;;21.70;10.32;;;;;;;15.36;100.00;101439.84;5078712;28;20071;-74
2021/08/19 02:24:56;;;;;;;20.77;9.77;;;;;;;15.38;100.00;101442.47;5081771;28;20442;-73
2021/08/19 02:27:26;;;;;;;27.35;10.02;;;;;;;15.43;100.00;101443.16;5078498;28;20106;-71
2021/08/19 02:29:53;;;;;;;21.23;10.25;;;;;;;15.45;100.00;101438.56;5079109;28;20506;-74
2021/08/19 02:32:22;;;;;;;20.45;10.13;;;;;;;15.45;100.00;101435.88;5079461;28;20132;-73
2021/08/19 02:34:52;;;;;;;17.33;9.27;;;;;;;15.48;100.00;101443.81;5079964;28;20055;-71
2021/08/19 02:37:21;;;;;;;20.75;9.88;;;;;;;15.51;100.00;101435.63;5081190;28;20392;-72
2021/08/19 02:39:49;;;;;;;17.40;9.85;;;;;;;15.52;100.00;101434.66;5080857;28;20060;-72
2021/08/19 02:42:17;;;;;;;19.27;9.90;;;;;;;15.54;100.00;101432.78;5077347;28;20153;-72
2021/08/19 02:44:44;;;;;;;17.38;9.73;;;;;;;15.58;100.00;101431.72;5080259;28;20393;-72
2021/08/19 02:47:12;;;;;;;17.33;10.77;;;;;;;15.58;100.00;101433.53;5079763;28;20146;-72
2021/08/19 02:49:40;;;;;;;18.23;9.45;;;;;;;15.61;100.00;101423.53;5081104;28;20067;-72
2021/08/19 02:52:08;;;;;;;16.63;9.18;;;;;;;15.63;100.00;101420.75;5080337;28;20064;-72
2021/08/19 02:54:37;;;;;;;19.50;10.02;;;;;;;15.65;100.00;101422.44;5080035;28;20444;-73
2021/08/19 02:57:05;;;;;;;20.58;9.88;;;;;;;15.65;100.00;101419.75;5080851;28;20051;-72
2021/08/19 02:59:32;;;;;;;21.85;10.07;;;;;;;15.69;100.00;101424.03;5077382;28;20140;-72
2021/08/19 03:02:00;;;;;;;20.92;10.35;;;;;;;15.69;100.00;101418.66;5080737;28;20048;-72
2021/08/19 03:04:28;;;;;;;17.67;8.30;;;;;;;15.75;100.00;101428.34;5078348;28;20052;-72
2021/08/19 03:06:56;;;;;;;17.80;8.90;;;;;;;15.77;100.00;101415.69;5078353;28;20059;-72
2021/08/19 03:09:23;;;;;;;22.73;9.77;;;;;;;15.77;100.00;101425.56;5079141;28;20445;-72
2021/08/19 03:11:53;;;;;;;20.38;9.82;;;;;;;15.76;100.00;101413.06;5081378;28;20052;-71
2021/08/19 03:14:20;;;;;;;19.58;9.90;;;;;;;15.77;100.00;101418.38;5078704;28;20071;-72
2021/08/19 03:16:48;;;;;;;18.65;10.23;;;;;;;15.78;100.00;101416.53;5078802;28;20293;-73
2021/08/19 03:19:16;;;;;;;18.85;9.90;;;;;;;15.80;100.00;101422.72;5079598;28;21139;-72
2021/08/19 03:21:44;;;;;;;18.35;10.07;;;;;;;15.85;100.00;101420.69;5079417;28;20052;-72
2021/08/19 03:24:13;;;;;;;21.08;10.43;;;;;;;15.85;100.00;101418.00;5081916;28;20446;-73
2021/08/19 03:26:41;;;;;;;22.67;9.93;;;;;;;15.88;100.00;101420.56;5077835;28;20134;-72
2021/08/19 03:29:11;;;;;;;20.00;10.02;;;;;;;15.90;100.00;101412.44;5081697;28;20047;-73
2021/08/19 03:31:39;;;;;;;16.70;9.10;;;;;;;15.93;100.00;101415.84;5078841;28;20536;-72
2021/08/19 03:34:06;;;;;;;22.08;10.18;;;;;;;15.91;100.00;101417.75;5080824;28;20059;-72
2021/08/19 03:36:34;;;;;;;18.83;9.63;;;;;;;15.91;100.00;101411.50;5081120;28;20060;-72
2021/08/19 03:39:03;;;;;;;17.00;8.57;;;;;;;15.93;100.00;101409.59;5073821;28;20067;-72
2021/08/19 03:41:32;;;;;;;16.02;9.07;;;;;;;15.93;100.00;101410.47;5080356;28;20565;-72
2021/08/19 03:44:00;;;;;;;17.38;8.88;;;;;;;15.91;100.00;101416.88;5080136;28;20153;-72
2021/08/19 03:46:29;;;;;;;18.10;8.88;;;;;;;15.96;100.00;101412.16;5079767;28;20078;-72
2021/08/19 03:48:59;;;;;;;18.10;9.57;;;;;;;15.94;100.00;101406.84;5080507;28;20363;-72
2021/08/19 03:51:27;;;;;;;16.98;8.30;;;;;;;15.91;100.00;101404.28;5077213;28;20077;-72
2021/08/19 03:53:56;;;;;;;23.38;9.98;;;;;;;15.91;100.00;101414.19;5078037;28;20060;-72
2021/08/19 03:56:27;;;;;;;18.27;9.05;;;;;;;15.91;100.00;101411.50;5078240;28;20068;-72
2021/08/19 03:58:56;;;;;;;18.73;8.65;;;;;;;15.96;100.00;101410.34;5078152;28;20048;-73
2021/08/19 04:01:24;;;;;;;17.90;9.65;;;;;;;15.94;100.00;101417.59;5075225;28;20072;-72
2021/08/19 04:03:53;;;;;;;18.38;10.20;;;;;;;15.93;100.00;101406.91;5080340;28;20070;-72
2021/08/19 04:06:21;;;;;;;17.73;9.80;;;;;;;15.93;99.96;101409.59;5075292;28;20580;-72
2021/08/19 04:08:49;;;;;;;19.67;9.75;;;;;;;15.90;100.00;101402.53;5078588;28;20067;-72
2021/08/19 04:11:17;;;;;;;18.98;9.98;;;;;;;15.90;100.00;101410.59;5078303;28;20140;-72
2021/08/19 04:13:44;;;;;;;20.15;10.77;;;;;;;15.90;99.93;101410.59;5077030;28;20070;-72
2021/08/19 04:16:12;;;;;;;17.58;8.70;;;;;;;15.91;99.95;101406.13;5081575;28;20055;-73
2021/08/19 04:18:40;;;;;;;18.25;10.27;;;;;;;15.93;99.62;101406.91;5077242;28;20588;-72
2021/08/19 04:21:10;;;;;;;21.40;9.50;;;;;;;15.94;99.33;101408.66;5079520;28;22979;-72
2021/08/19 04:23:41;;;;;;;22.10;10.73;;;;;;;15.96;98.99;101409.47;5075455;28;20396;-72
2021/08/19 04:26:09;;;;;;;18.70;10.05;;;;;;;15.93;98.90;101402.41;5080526;28;20446;-72
2021/08/19 04:28:37;;;;;;;17.58;10.00;;;;;;;15.94;99.16;101398.78;5078892;28;21042;-72
2021/08/19 04:31:05;;;;;;;16.58;8.65;;;;;;;15.94;98.63;101398.78;5078768;28;20446;-73
2021/08/19 04:33:33;;;;;;;17.95;10.30;;;;;;;15.92;98.42;101397.97;5081216;28;20066;-73
2021/08/19 04:36:01;;;;;;;18.42;9.48;;;;;;;15.91;98.78;101398.91;5077508;28;20147;-73
2021/08/19 04:38:35;;;;;;;16.02;8.13;;;;;;;15.92;98.89;101397.97;5081001;28;20063;-72
2021/08/19 04:41:03;;;;;;;16.38;8.88;;;;;;;15.93;98.52;101405.09;5076783;28;20059;-72
2021/08/19 04:43:31;;;;;;;17.73;9.68;;;;;;;15.93;98.43;101402.41;5082709;28;20064;-73
2021/08/19 04:45:59;;;;;;;16.35;8.63;;;;;;;15.93;98.64;101399.69;5076754;28;20067;-73
2021/08/19 04:48:27;;;;;;;17.52;9.70;;;;;;;16.00;98.28;101409.25;5076965;28;20296;-73
2021/08/19 04:50:55;;;;;;;16.05;8.15;;;;;;;16.00;97.55;101403.84;5080774;28;20330;-73
2021/08/19 04:53:22;;;;;;;14.40;7.85;;;;;;;15.98;97.64;101405.75;5076879;28;20131;-72
2021/08/19 04:55:52;;;;;;;13.50;7.60;;;;;;;16.00;97.16;101405.69;5083016;28;20068;-73
2021/08/19 04:58:19;;;;;;;13.75;6.45;;;;;;;16.00;97.10;101406.53;5078158;28;20059;-73
2021/08/19 05:00:47;;;;;;;14.15;6.97;;;;;;;16.02;96.77;101402.00;5082865;28;20060;-74
2021/08/19 05:03:16;;;;;;;11.98;6.38;;;;;;;16.03;96.63;101400.16;5081617;28;20064;-73
2021/08/19 05:05:44;;;;;;;13.50;7.03;;;;;;;16.03;96.16;101405.53;5079249;28;20066;-73
2021/08/19 05:08:12;;;;;;;10.95;6.78;;;;;;;16.03;96.50;101406.41;5077000;28;20141;-74
2021/08/19 05:10:39;;;;;;;14.60;7.50;;;;;;;16.06;96.16;101418.88;5083746;28;20718;-74
2021/08/19 05:13:09;;;;;;;13.65;7.22;;;;;;;16.09;95.78;101412.47;5083049;28;20114;-74
2021/08/19 05:15:36;;;;;;;13.05;6.80;;;;;;;16.11;95.43;101413.28;5081920;28;20448;-74
2021/08/19 05:18:04;;;;;;;13.65;7.28;;;;;;;16.12;95.59;101415.88;5087344;28;20064;-74
2021/08/19 05:20:32;;;;;;;11.48;6.70;;;;;;;16.14;95.56;101415.81;5078208;28;20064;-74
2021/08/19 05:23:00;;;;;;;11.63;6.30;;;;;;;16.13;95.68;101416.78;5083320;28;20072;-73
2021/08/19 05:25:28;;;;;;;12.10;6.57;;;;;;;16.18;95.42;101421.00;5083368;28;20160;-74
2021/08/19 05:27:55;;;;;;;11.85;6.80;;;;;;;16.17;95.77;101426.44;5082851;28;20071;-73
2021/08/19 05:30:25;;;;;;;14.20;8.20;;;;;;;16.16;95.98;101430.09;5084330;28;20064;-72
2021/08/19 05:32:53;;;;;;;12.55;7.63;;;;;;;16.17;95.89;101423.75;5079417;28;20075;-73
2021/08/19 05:35:21;;;;;;;12.68;7.35;;;;;;;16.20;96.21;101423.63;5082779;28;20620;-73
2021/08/19 05:37:49;;;;;;;12.80;8.00;;;;;;;16.19;96.38;101429.94;5080188;28;20056;-73
2021/08/19 05:40:17;;;;;;;15.55;7.65;;;;;;;16.18;96.13;101426.38;5081002;28;20064;-74
2021/08/19 05:42:45;;;;;;;17.10;8.35;;;;;;;16.20;95.74;101429.00;5079871;28;20157;-74
2021/08/19 05:45:12;;;;;;;11.98;8.00;;;;;;;16.22;96.20;101435.19;5082166;28;20071;-74
2021/08/19 05:47:42;;;;;;;16.17;8.68;;;;;;;16.24;95.79;101430.59;5077357;28;20441;-74
2021/08/19 05:50:11;;;;;;;15.15;8.70;;;;;;;16.25;95.77;101441.28;5081093;28;20063;-73
2021/08/19 05:52:40;;;;;;;17.40;9.10;;;;;;;16.29;95.66;101438.47;5080273;28;20292;-73
2021/08/19 05:55:08;;;;;;;16.27;9.23;;;;;;;16.30;95.08;101434.84;5082169;28;20300;-73
2021/08/19 05:57:36;;;;;;;14.98;8.57;;;;;;;16.34;94.50;101431.91;5083097;28;20062;-74
2021/08/19 06:00:04;;;;;;;15.05;8.60;;;;;;;16.35;93.95;101438.19;5081132;28;20082;-74
2021/08/19 06:02:32;;;;;;;16.77;9.48;;;;;;;16.37;94.58;101431.78;5083369;28;20068;-72
2021/08/19 06:05:02;;;;;;;16.88;9.70;;;;;;;16.38;94.23;101438.91;5081307;28;20652;-72
2021/08/19 06:07:30;;;;;;;16.17;9.70;;;;;;;16.34;94.36;101439.13;5080762;28;20068;-73
2021/08/19 06:09:57;;;;;;;19.27;9.73;;;;;;;16.39;93.96;101434.41;5081800;28;20064;-73
2021/08/19 06:12:27;;;;;;;15.32;8.57;;;;;;;16.38;93.78;101432.66;5082223;28;20060;-73
2021/08/19 06:14:55;;;;;;;14.30;8.70;;;;;;;16.41;93.63;101432.50;5084727;28;20071;-73
2021/08/19 06:17:23;;;;;;;15.38;8.68;;;;;;;16.42;93.22;101431.56;5079725;28;20094;-73
2021/08/19 06:19:50;;;;;;;15.77;8.75;;;;;;;16.44;92.94;101435.91;5083157;28;20056;-74
2021/08/19 06:22:20;;;;;;;15.10;8.55;;;;;;;16.44;93.33;101433.22;5082190;28;20064;-73
2021/08/19 06:24:48;;;;;;;14.98;8.30;;;;;;;16.43;93.22;101431.50;5079958;28;20099;-73
2021/08/19 06:27:18;;;;;;;17.92;9.35;;;;;;;16.46;93.63;101434.97;5077453;28;20064;-74
2021/08/19 06:29:45;;;;;;;17.13;8.45;;;;;;;16.47;93.31;101432.22;5077598;28;20478;-74
2021/08/19 06:32:13;;;;;;;17.92;8.35;;;;;;;16.51;93.19;101435.63;5077778;28;20610;-74
2021/08/19 06:34:41;;;;;;;15.45;8.40;;;;;;;16.52;93.43;101432.88;5080865;28;20083;-73
2021/08/19 06:37:10;;;;;;;15.82;7.90;;;;;;;16.53;93.31;101434.63;5082155;28;20466;-75
2021/08/19 06:39:40;;;;;;;18.08;8.45;;;;;;;16.51;93.08;101433.81;5081886;28;20487;-73
2021/08/19 06:42:08;;;;;;;16.40;8.40;;;;;;;16.54;93.26;101438.19;5083465;28;20103;-75
2021/08/19 06:44:35;;;;;;;17.63;9.27;;;;;;;16.52;93.44;101432.88;5080080;28;20284;-74
2021/08/19 06:47:04;;;;;;;14.93;8.48;;;;;;;16.55;93.32;101439.91;5081372;28;20048;-73
2021/08/19 06:49:31;;;;;;;17.38;9.13;;;;;;;16.55;93.57;101445.31;5083045;28;20165;-75
2021/08/19 06:51:59;;;;;;;16.48;9.75;;;;;;;16.55;93.50;101439.91;5077646;28;20070;-75
2021/08/19 06:54:27;;;;;;;17.48;9.38;;;;;;;16.55;93.20;101439.91;5078108;28;20059;-74
2021/08/19 06:56:56;;;;;;;15.43;8.80;;;;;;;16.59;93.28;101434.31;5079756;28;20347;-74
2021/08/19 06:59:24;;;;;;;18.92;9.13;;;;;;;16.59;93.33;101441.53;5080151;28;20067;-74
2021/08/19 07:01:52;;;;;;;17.55;9.23;;;;;;;16.59;93.29;101445.09;5077992;28;20075;-74
2021/08/19 07:04:20;;;;;;;16.30;8.73;;;;;;;16.60;93.33;101441.47;5080371;28;20070;-75
2021/08/19 07:06:48;;;;;;;19.55;9.27;;;;;;;16.61;92.51;101443.19;5077309;28;20450;-75
2021/08/19 07:09:16;;;;;;;17.90;9.38;;;;;;;16.67;92.86;101449.25;5082757;28;20064;-75
2021/08/19 07:11:43;;;;;;;17.25;9.55;;;;;;;16.65;92.65;101457.38;5076921;28;20512;-74
2021/08/19 07:14:13;;;;;;;14.60;8.88;;;;;;;16.66;92.89;101447.50;5078549;28;20095;-75
2021/08/19 07:16:40;;;;;;;19.00;10.15;;;;;;;16.68;92.94;101448.31;5075326;28;20091;-75
2021/08/19 07:19:08;;;;;;;18.20;8.63;;;;;;;16.71;92.97;101453.56;5079016;28;20121;-75
2021/08/19 07:21:36;;;;;;;27.10;11.00;;;;;;;16.68;93.20;101457.25;5080326;28;20067;-77
2021/08/19 07:24:05;;;;;;;27.10;10.93;;;;;;;16.70;93.22;101455.38;5076844;28;20063;-74
2021/08/19 07:26:33;;;;;;;18.88;10.20;;;;;;;16.71;93.33;101457.09;5077480;28;20124;-75
2021/08/19 07:29:01;;;;;;;19.83;10.65;;;;;;;16.72;93.78;101449.88;5075727;28;20105;-74
2021/08/19 07:31:32;;;;;;;21.95;10.43;;;;;;;16.77;93.73;101462.22;5080502;28;20074;-73
2021/08/19 07:34:00;;;;;;;20.65;8.98;;;;;;;16.79;93.42;101460.31;5077838;28;20099;-74
2021/08/19 07:36:27;;;;;;;19.02;9.60;;;;;;;16.78;93.23;101461.25;5077243;28;20469;-74
2021/08/19 07:38:59;;;;;;;18.55;9.90;;;;;;;16.86;93.98;101462.75;5079653;28;20055;-74
2021/08/19 07:41:27;;;;;;;24.48;11.13;;;;;;;16.90;93.10;101457.13;5080403;28;20147;-75
2021/08/19 07:43:54;;;;;;;19.15;9.48;;;;;;;16.97;93.20;101455.00;5081083;28;20064;-75
2021/08/19 07:46:22;;;;;;;17.45;9.52;;;;;;;16.99;92.76;101463.88;5077477;28;20537;-74
2021/08/19 07:48:51;;;;;;;16.83;8.75;;;;;;;17.04;92.93;101469.06;5078812;28;20044;-74
2021/08/19 07:51:19;;;;;;;18.70;9.25;;;;;;;17.07;92.33;101460.81;5078882;28;20129;-74
2021/08/19 07:53:47;;;;;;;16.23;8.93;;;;;;;17.05;92.51;101460.91;5076245;28;20060;-74
2021/08/19 07:56:15;;;;;;;16.85;9.20;;;;;;;17.14;92.14;101468.50;5077924;28;20159;-76
2021/08/19 07:58:42;;;;;;;16.98;9.30;;;;;;;17.13;92.11;101464.09;5076518;28;20052;-74
2021/08/19 08:01:10;;;;;;;17.35;9.57;;;;;;;17.10;92.02;101466.06;5079539;28;20072;-72
2021/08/19 08:03:38;;;;;;;18.13;9.43;;;;;;;17.22;91.76;101483.47;5077857;28;20064;-74
2021/08/19 08:06:08;;;;;;;14.98;8.27;;;;;;;17.21;91.25;101479.88;5080847;28;21058;-72
2021/08/19 08:08:36;;;;;;;16.08;8.30;;;;;;;17.22;91.24;101478.94;5077903;28;20063;-70
2021/08/19 08:11:04;;;;;;;18.55;8.80;;;;;;;17.23;91.41;101483.38;5078718;28;20064;-73
2021/08/19 08:13:31;;;;;;;16.60;9.27;;;;;;;17.31;91.59;101478.44;5077204;28;20064;-71
2021/08/19 08:15:59;;;;;;;14.73;8.63;;;;;;;17.36;90.73;101489.03;5080450;28;20369;-73
2021/08/19 08:18:27;;;;;;;17.63;8.77;;;;;;;17.38;90.58;101488.94;5077502;28;20061;-70
2021/08/19 08:20:57;;;;;;;17.25;8.88;;;;;;;17.43;89.82;101490.44;5078588;28;20340;-70
2021/08/19 08:23:30;;;;;;;15.40;8.98;;;;;;;17.59;90.30;101477.06;5082656;28;20091;-75
2021/08/19 08:25:57;;;;;;;14.95;8.60;;;;;;;17.60;89.41;101478.81;5079664;28;20481;-72
2021/08/19 08:28:28;;;;;;;17.67;9.48;;;;;;;17.65;89.56;101489.38;5082342;28;20401;-70
2021/08/19 08:30:56;;;;;;;15.93;8.25;;;;;;;17.61;89.25;101488.66;5080184;28;20172;-71
2021/08/19 08:33:25;;;;;;;16.92;8.75;;;;;;;17.59;89.46;101495.97;5080174;28;20060;-73
2021/08/19 08:35:56;;;;;;;14.65;8.40;;;;;;;17.67;89.68;101499.16;5083589;28;20092;-74
2021/08/19 08:38:26;;;;;;;18.95;10.15;;;;;;;17.69;89.05;101502.63;5080621;28;20110;-72
2021/08/19 08:40:54;;;;;;;15.95;8.65;;;;;;;17.68;88.61;101497.31;5084821;28;20113;-72
2021/08/19 08:43:27;;;;;;;16.50;9.15;;;;;;;17.72;88.51;101497.09;5079928;28;20462;-72
2021/08/19 08:45:57;;;;;;;14.85;8.77;;;;;;;17.71;88.42;101497.16;5084226;28;20074;-72
2021/08/19 08:48:26;;;;;;;18.95;9.05;;;;;;;17.75;88.07;101504.13;5081085;28;20182;-72
2021/08/19 08:50:56;;;;;;;18.00;8.60;;;;;;;17.74;88.14;101499.66;5084059;28;20056;-72
2021/08/19 08:53:26;;;;;;;16.17;8.80;;;;;;;17.83;87.66;101501.06;5079056;28;20278;-72
2021/08/19 08:55:54;;;;;;;16.23;8.98;;;;;;;17.85;87.69;101500.00;5080637;28;20067;-73
2021/08/19 08:58:22;;;;;;;17.45;9.27;;;;;;;17.82;87.30;101502.84;5083759;28;20063;-74
2021/08/19 09:00:50;;;;;;;16.60;8.10;;;;;;;17.80;87.31;101512.88;5080618;28;20090;-73
2021/08/19 09:03:20;;;;;;;16.23;8.50;;;;;;;17.92;87.96;101512.25;5082676;28;20118;-73
2021/08/19 09:05:48;;;;;;;16.77;8.57;;;;;;;17.97;87.38;101516.56;5078355;28;20064;-72
2021/08/19 09:08:18;;;;;;;17.92;8.30;;;;;;;18.05;87.48;101514.34;5083595;28;20110;-72
2021/08/19 09:10:48;;;;;;;14.93;8.60;;;;;;;18.03;87.21;101509.00;5079327;28;20354;-72
2021/08/19 09:13:18;;;;;;;17.80;9.55;;;;;;;18.02;86.72;101520.75;5080114;28;20052;-72
2021/08/19 09:15:47;;;;;;;14.80;8.38;;;;;;;18.09;87.02;101519.47;5077969;28;20068;-71
2021/08/19 09:18:29;;;;;;;16.17;8.20;;;;;;;18.05;87.02;101515.19;5083501;28;20469;-71
2021/08/19 09:20:57;;;;;;;17.30;8.60;;;;;;;18.05;87.20;101512.50;5084285;28;20063;-72
2021/08/19 09:23:25;;;;;;;15.00;7.97;;;;;;;18.07;86.75;101515.97;5080377;28;20151;-72
2021/08/19 09:25:54;;;;;;;16.70;8.35;;;;;;;18.05;87.15;101517.91;5083226;28;20072;-72
2021/08/19 09:28:24;;;;;;;15.35;8.40;;;;;;;18.26;86.61;101513.16;5077494;28;20040;-72
2021/08/19 09:30:54;;;;;;;17.27;8.82;;;;;;;18.26;86.01;101517.69;5081794;28;20110;-71
2021/08/19 09:33:24;;;;;;;13.55;8.05;;;;;;;18.17;85.60;101516.38;5080112;28;20113;-74
2021/08/19 09:35:53;;;;;;;15.25;8.15;;;;;;;18.24;85.96;101520.47;5081328;28;20314;-70
2021/08/19 09:38:23;;;;;;;14.32;8.43;;;;;;;18.25;85.58;101514.13;5083491;28;20060;-70
2021/08/19 09:41:08;;;;;;;15.20;8.50;;;;;;;18.26;85.17;101517.69;5081316;28;20214;-70
2021/08/19 09:43:41;;;;;;;16.35;8.45;;;;;;;18.42;85.78;101506.94;5083838;28;20378;-70
2021/08/19 09:46:10;;;;;;;16.42;9.55;;;;;;;18.28;84.71;101519.34;5077871;28;20140;-71
2021/08/19 09:48:38;;;;;;;15.70;8.75;;;;;;;18.41;84.33;101510.59;5082237;28;20088;-72
2021/08/19 09:51:17;;;;;;;19.77;9.75;;;;;;;18.40;83.40;101515.13;5080700;28;20417;-72
2021/08/19 09:53:47;;;;;;;17.52;9.60;;;;;;;18.56;84.29;101511.56;5085364;28;20044;-71
2021/08/19 09:56:29;;;;;;;17.35;9.05;;;;;;;18.75;83.97;101511.44;5080119;28;20087;-71
2021/08/19 09:59:17;;;;;;;19.45;9.20;;;;;;;18.74;82.38;101509.69;5084526;28;20289;-71
2021/08/19 10:01:45;;;;;;;14.60;8.77;;;;;;;18.73;82.83;101522.34;5080651;28;20066;-73
2021/08/19 10:04:14;;;;;;;16.33;9.25;;;;;;;18.65;82.91;101511.94;5080614;28;20075;-72
2021/08/19 10:06:42;;;;;;;15.68;8.82;;;;;;;18.63;82.70;101515.72;5080731;28;20439;-71
2021/08/19 10:09:10;;;;;;;13.75;8.25;;;;;;;18.59;82.29;101514.13;5078403;28;20063;-70
2021/08/19 10:11:42;;;;;;;16.63;8.00;;;;;;;18.75;82.24;101519.56;5080886;28;20060;-71
2021/08/19 10:14:13;;;;;;;17.63;9.18;;;;;;;18.76;82.36;101513.19;5078932;28;20487;-71
2021/08/19 10:16:42;;;;;;;14.20;8.07;;;;;;;18.97;82.91;101512.00;5082551;28;20193;-71
2021/08/19 10:19:13;;;;;;;14.18;8.38;;;;;;;18.94;82.15;101511.31;5080214;28;20142;-71
2021/08/19 10:21:44;;;;;;;14.73;6.97;;;;;;;18.72;82.56;101514.31;5082971;28;20087;-71
2021/08/19 10:24:13;;;;;;;16.55;8.18;;;;;;;18.79;82.78;101508.47;5082557;28;20137;-71
2021/08/19 10:26:42;;;;;;;13.63;7.20;;;;;;;18.83;81.86;101512.78;5078299;28;20421;-71
2021/08/19 10:29:10;;;;;;;15.27;7.28;;;;;;;18.85;81.97;101515.41;5080866;28;20061;-72
2021/08/19 10:31:47;;;;;;;11.07;6.88;;;;;;;18.57;82.59;101508.78;5081180;28;20184;-72
2021/08/19 10:34:39;;;;;;;11.05;6.28;;;;;;;18.53;82.44;101509.06;5079762;28;20064;-72
2021/08/19 10:37:07;;;;;;;13.52;6.35;;;;;;;18.59;83.13;101514.13;5081355;28;20048;-72
2021/08/19 10:39:40;;;;;;;13.15;7.18;;;;;;;18.48;82.63;101515.56;5079242;28;20055;-73
2021/08/19 10:42:29;;;;;;;11.70;6.65;;;;;;;18.02;84.50;101523.44;5079107;28;20059;-72
2021/08/19 10:44:57;;;;;;;12.20;6.32;;;;;;;18.07;85.05;101524.06;5081469;28;20363;-72
2021/08/19 10:47:39;;;;;;;11.63;6.07;;;;;;;18.24;84.54;101528.59;5079271;28;20064;-72
2021/08/19 10:50:28;;;;;;;10.48;6.43;;;;;;;18.23;84.38;101524.13;5078869;28;20451;-71
2021/08/19 10:52:58;;;;;;;10.20;6.40;;;;;;;18.22;84.47;101524.25;5079477;28;21808;-73
2021/08/19 10:55:38;;;;;;;11.52;6.53;;;;;;;18.14;84.58;101526.47;5080151;28;20131;-72
2021/08/19 10:58:26;;;;;;;12.23;6.15;;;;;;;18.22;84.08;101525.09;5082382;28;20079;-72
2021/08/19 11:00:55;;;;;;;11.38;6.43;;;;;;;18.21;84.50;101527.88;5082137;28;20064;-72
2021/08/19 11:03:44;;;;;;;12.77;6.65;;;;;;;18.04;85.17;101526.94;5083142;28;20242;-73
2021/08/19 11:06:16;;;;;;;13.63;6.70;;;;;;;18.03;85.42;101532.41;5082798;28;20052;-71
2021/08/19 11:08:51;;;;;;;12.25;6.20;;;;;;;17.92;85.44;101528.44;5083104;28;20060;-71
2021/08/19 11:11:34;;;;;;;10.88;6.35;;;;;;;18.00;85.92;101525.38;5081604;28;20090;-73
2021/08/19 11:14:08;;;;;;;12.43;6.18;;;;;;;17.92;85.73;101530.28;5083076;28;20111;-72
2021/08/19 11:16:38;;;;;;;12.55;6.05;;;;;;;17.99;86.82;101526.31;5082516;28;20087;-72
2021/08/19 11:19:14;;;;;;;11.57;6.68;;;;;;;18.00;86.63;101536.16;5081102;28;20063;-72
2021/08/19 11:21:44;;;;;;;12.27;7.28;;;;;;;17.71;88.61;101537.63;5080901;28;20319;-72
2021/08/19 11:24:11;;;;;;;14.50;7.53;;;;;;;17.51;90.10;101542.19;5082890;28;20447;-72